sensor_id;sensor_type;location;lat;lon;timestamp;P1;durP1;ratioP1;P2;durP2;ratioP2
54360;SDS011;40258;53.936;27.540;2022-08-19T00:01:57;12.35;;;6.78;;
54360;SDS011;40258;53.936;27.540;2022-08-19T00:04:27;13.60;;;7.82;;
54360;SDS011;40258;53.936;27.540;2022-08-19T00:07:04;11.57;;;6.68;;
54360;SDS011;40258;53.936;27.540;2022-08-19T00:09:33;12.90;;;7.60;;
54360;SDS011;40258;53.936;27.540;2022-08-19T00:12:03;11.70;;;8.10;;
54360;SDS011;40258;53.936;27.540;2022-08-19T00:14:31;13.25;;;8.32;;
54360;SDS011;40258;53.936;27.540;2022-08-19T00:17:00;12.13;;;8.32;;
54360;SDS011;40258;53.936;27.540;2022-08-19T00:19:30;13.32;;;8.25;;
54360;SDS011;40258;53.936;27.540;2022-08-19T00:21:59;12.93;;;9.00;;
54360;SDS011;40258;53.936;27.540;2022-08-19T00:24:29;12.93;;;8.27;;
54360;SDS011;40258;53.936;27.540;2022-08-19T00:26:59;15.00;;;8.48;;
54360;SDS011;40258;53.936;27.540;2022-08-19T00:29:28;16.73;;;8.75;;
54360;SDS011;40258;53.936;27.540;2022-08-19T00:31:57;12.95;;;8.07;;
54360;SDS011;40258;53.936;27.540;2022-08-19T00:34:26;13.93;;;9.07;;
54360;SDS011;40258;53.936;27.540;2022-08-19T00:36:55;14.77;;;8.77;;
54360;SDS011;40258;53.936;27.540;2022-08-19T00:39:25;15.13;;;8.98;;
54360;SDS011;40258;53.936;27.540;2022-08-19T00:41:56;16.63;;;9.43;;
54360;SDS011;40258;53.936;27.540;2022-08-19T00:44:25;14.52;;;8.85;;
54360;SDS011;40258;53.936;27.540;2022-08-19T00:46:57;13.25;;;8.95;;
54360;SDS011;40258;53.936;27.540;2022-08-19T00:49:27;18.35;;;9.05;;
54360;SDS011;40258;53.936;27.540;2022-08-19T00:52:03;13.63;;;7.67;;
54360;SDS011;40258;53.936;27.540;2022-08-19T00:54:36;19.30;;;8.90;;
54360;SDS011;40258;53.936;27.540;2022-08-19T00:57:09;13.48;;;9.27;;
54360;SDS011;40258;53.936;27.540;2022-08-19T00:59:43;16.55;;;10.20;;
54360;SDS011;40258;53.936;27.540;2022-08-19T01:02:15;19.63;;;10.73;;
54360;SDS011;40258;53.936;27.540;2022-08-19T01:04:44;18.52;;;9.20;;
54360;SDS011;40258;53.936;27.540;2022-08-19T01:07:13;14.93;;;10.02;;
54360;SDS011;40258;53.936;27.540;2022-08-19T01:09:43;14.32;;;10.38;;
54360;SDS011;40258;53.936;27.540;2022-08-19T01:12:14;14.50;;;9.93;;
54360;SDS011;40258;53.936;27.540;2022-08-19T01:14:44;17.60;;;10.45;;
54360;SDS011;40258;53.936;27.540;2022-08-19T01:17:14;17.50;;;10.65;;
54360;SDS011;40258;53.936;27.540;2022-08-19T01:19:43;15.82;;;10.00;;
54360;SDS011;40258;53.936;27.540;2022-08-19T01:22:14;15.60;;;10.95;;
54360;SDS011;40258;53.936;27.540;2022-08-19T01:24:54;16.33;;;9.60;;
54360;SDS011;40258;53.936;27.540;2022-08-19T01:27:22;18.20;;;9.60;;
54360;SDS011;40258;53.936;27.540;2022-08-19T01:29:51;15.38;;;9.95;;
54360;SDS011;40258;53.936;27.540;2022-08-19T01:32:19;13.45;;;9.45;;
54360;SDS011;40258;53.936;27.540;2022-08-19T01:34:48;17.13;;;10.23;;
54360;SDS011;40258;53.936;27.540;2022-08-19T01:37:16;12.32;;;9.40;;
54360;SDS011;40258;53.936;27.540;2022-08-19T01:39:47;17.20;;;10.57;;
54360;SDS011;40258;53.936;27.540;2022-08-19T01:42:16;16.10;;;9.93;;
54360;SDS011;40258;53.936;27.540;2022-08-19T01:44:45;14.85;;;10.27;;
54360;SDS011;40258;53.936;27.540;2022-08-19T01:47:14;15.43;;;11.60;;
54360;SDS011;40258;53.936;27.540;2022-08-19T01:49:43;17.98;;;11.20;;
54360;SDS011;40258;53.936;27.540;2022-08-19T01:52:12;15.63;;;11.25;;
54360;SDS011;40258;53.936;27.540;2022-08-19T01:54:40;17.73;;;10.90;;
54360;SDS011;40258;53.936;27.540;2022-08-19T01:57:11;15.70;;;11.73;;
54360;SDS011;40258;53.936;27.540;2022-08-19T01:59:41;15.25;;;11.07;;
54360;SDS011;40258;53.936;27.540;2022-08-19T02:02:12;16.65;;;12.43;;
54360;SDS011;40258;53.936;27.540;2022-08-19T02:04:41;14.07;;;11.75;;
54360;SDS011;40258;53.936;27.540;2022-08-19T02:07:09;15.57;;;11.45;;
54360;SDS011;40258;53.936;27.540;2022-08-19T02:09:38;17.27;;;12.50;;
54360;SDS011;40258;53.936;27.540;2022-08-19T02:12:07;14.32;;;11.80;;
54360;SDS011;40258;53.936;27.540;2022-08-19T02:14:37;13.57;;;10.77;;
54360;SDS011;40258;53.936;27.540;2022-08-19T02:17:05;17.88;;;11.73;;
54360;SDS011;40258;53.936;27.540;2022-08-19T02:19:34;18.10;;;11.35;;
54360;SDS011;40258;53.936;27.540;2022-08-19T02:22:03;15.73;;;11.38;;
54360;SDS011;40258;53.936;27.540;2022-08-19T02:24:32;18.98;;;12.48;;
54360;SDS011;40258;53.936;27.540;2022-08-19T02:27:01;16.30;;;11.85;;
54360;SDS011;40258;53.936;27.540;2022-08-19T02:29:30;16.67;;;12.05;;
54360;SDS011;40258;53.936;27.540;2022-08-19T02:32:00;16.25;;;11.60;;
54360;SDS011;40258;53.936;27.540;2022-08-19T02:34:30;22.13;;;11.88;;
54360;SDS011;40258;53.936;27.540;2022-08-19T02:36:58;15.27;;;11.52;;
54360;SDS011;40258;53.936;27.540;2022-08-19T02:39:27;17.10;;;11.95;;
54360;SDS011;40258;53.936;27.540;2022-08-19T02:41:55;16.00;;;11.45;;
54360;SDS011;40258;53.936;27.540;2022-08-19T02:44:25;16.73;;;11.80;;
54360;SDS011;40258;53.936;27.540;2022-08-19T02:46:54;15.77;;;11.25;;
54360;SDS011;40258;53.936;27.540;2022-08-19T02:49:24;16.83;;;11.40;;
54360;SDS011;40258;53.936;27.540;2022-08-19T02:51:52;15.43;;;11.68;;
54360;SDS011;40258;53.936;27.540;2022-08-19T02:54:21;14.85;;;12.07;;
54360;SDS011;40258;53.936;27.540;2022-08-19T02:56:49;14.48;;;11.20;;
54360;SDS011;40258;53.936;27.540;2022-08-19T02:59:18;12.45;;;10.50;;
54360;SDS011;40258;53.936;27.540;2022-08-19T03:01:47;16.95;;;11.23;;
54360;SDS011;40258;53.936;27.540;2022-08-19T03:04:16;16.02;;;11.50;;
54360;SDS011;40258;53.936;27.540;2022-08-19T03:06:46;19.90;;;11.85;;
54360;SDS011;40258;53.936;27.540;2022-08-19T03:09:16;15.98;;;11.73;;
54360;SDS011;40258;53.936;27.540;2022-08-19T03:11:47;17.85;;;11.75;;
54360;SDS011;40258;53.936;27.540;2022-08-19T03:14:16;16.60;;;11.85;;
54360;SDS011;40258;53.936;27.540;2022-08-19T03:16:45;15.13;;;11.55;;
54360;SDS011;40258;53.936;27.540;2022-08-19T03:19:17;15.95;;;11.43;;
54360;SDS011;40258;53.936;27.540;2022-08-19T03:21:48;25.85;;;11.48;;
54360;SDS011;40258;53.936;27.540;2022-08-19T03:24:18;15.45;;;11.40;;
54360;SDS011;40258;53.936;27.540;2022-08-19T03:26:47;13.55;;;11.27;;
54360;SDS011;40258;53.936;27.540;2022-08-19T03:29:18;16.33;;;11.15;;
54360;SDS011;40258;53.936;27.540;2022-08-19T03:31:47;16.98;;;10.85;;
54360;SDS011;40258;53.936;27.540;2022-08-19T03:34:19;15.48;;;11.70;;
54360;SDS011;40258;53.936;27.540;2022-08-19T03:36:53;13.25;;;10.02;;
54360;SDS011;40258;53.936;27.540;2022-08-19T03:39:23;15.55;;;10.85;;
54360;SDS011;40258;53.936;27.540;2022-08-19T03:41:53;13.02;;;10.23;;
54360;SDS011;40258;53.936;27.540;2022-08-19T03:44:24;16.20;;;10.85;;
54360;SDS011;40258;53.936;27.540;2022-08-19T03:46:53;17.73;;;10.77;;
54360;SDS011;40258;53.936;27.540;2022-08-19T03:49:25;14.68;;;9.85;;
54360;SDS011;40258;53.936;27.540;2022-08-19T03:51:58;13.75;;;10.93;;
54360;SDS011;40258;53.936;27.540;2022-08-19T03:54:27;15.63;;;10.65;;
54360;SDS011;40258;53.936;27.540;2022-08-19T03:56:57;12.65;;;10.38;;
54360;SDS011;40258;53.936;27.540;2022-08-19T03:59:26;12.40;;;10.02;;
54360;SDS011;40258;53.936;27.540;2022-08-19T04:02:00;16.00;;;9.85;;
54360;SDS011;40258;53.936;27.540;2022-08-19T04:04:35;15.65;;;9.82;;
54360;SDS011;40258;53.936;27.540;2022-08-19T04:07:06;14.32;;;9.68;;
54360;SDS011;40258;53.936;27.540;2022-08-19T04:09:36;14.52;;;9.13;;
54360;SDS011;40258;53.936;27.540;2022-08-19T04:12:05;14.18;;;9.38;;
54360;SDS011;40258;53.936;27.540;2022-08-19T04:14:35;11.73;;;8.82;;
54360;SDS011;40258;53.936;27.540;2022-08-19T04:17:04;16.00;;;8.95;;
54360;SDS011;40258;53.936;27.540;2022-08-19T04:19:33;12.35;;;8.60;;
54360;SDS011;40258;53.936;27.540;2022-08-19T04:22:05;20.77;;;12.02;;
54360;SDS011;40258;53.936;27.540;2022-08-19T04:24:35;12.95;;;9.18;;
54360;SDS011;40258;53.936;27.540;2022-08-19T04:27:03;12.95;;;9.07;;
54360;SDS011;40258;53.936;27.540;2022-08-19T04:29:32;16.50;;;9.32;;
54360;SDS011;40258;53.936;27.540;2022-08-19T04:32:01;15.55;;;9.10;;
54360;SDS011;40258;53.936;27.540;2022-08-19T04:34:31;16.85;;;8.10;;
54360;SDS011;40258;53.936;27.540;2022-08-19T04:37:00;20.02;;;7.90;;
54360;SDS011;40258;53.936;27.540;2022-08-19T04:39:30;14.60;;;8.57;;
54360;SDS011;40258;53.936;27.540;2022-08-19T04:42:17;13.25;;;7.95;;
54360;SDS011;40258;53.936;27.540;2022-08-19T04:44:59;14.85;;;8.45;;
54360;SDS011;40258;53.936;27.540;2022-08-19T04:47:29;12.35;;;8.65;;
54360;SDS011;40258;53.936;27.540;2022-08-19T04:49:58;17.77;;;7.90;;
54360;SDS011;40258;53.936;27.540;2022-08-19T04:52:27;14.98;;;8.73;;
54360;SDS011;40258;53.936;27.540;2022-08-19T04:54:58;11.98;;;7.82;;
54360;SDS011;40258;53.936;27.540;2022-08-19T04:57:27;17.63;;;8.18;;
54360;SDS011;40258;53.936;27.540;2022-08-19T04:59:56;13.38;;;8.95;;
54360;SDS011;40258;53.936;27.540;2022-08-19T05:02:24;13.25;;;8.45;;
54360;SDS011;40258;53.936;27.540;2022-08-19T05:04:55;13.23;;;8.20;;
54360;SDS011;40258;53.936;27.540;2022-08-19T05:07:27;11.90;;;8.07;;
54360;SDS011;40258;53.936;27.540;2022-08-19T05:09:56;14.27;;;8.10;;
54360;SDS011;40258;53.936;27.540;2022-08-19T05:12:26;12.40;;;7.78;;
54360;SDS011;40258;53.936;27.540;2022-08-19T05:14:56;10.75;;;8.23;;
54360;SDS011;40258;53.936;27.540;2022-08-19T05:17:26;12.30;;;8.10;;
54360;SDS011;40258;53.936;27.540;2022-08-19T05:19:55;15.93;;;7.97;;
54360;SDS011;40258;53.936;27.540;2022-08-19T05:25:13;13.60;;;8.48;;
54360;SDS011;40258;53.936;27.540;2022-08-19T05:27:46;16.42;;;8.82;;
54360;SDS011;40258;53.936;27.540;2022-08-19T05:30:15;14.40;;;9.48;;
54360;SDS011;40258;53.936;27.540;2022-08-19T05:32:44;15.65;;;8.80;;
54360;SDS011;40258;53.936;27.540;2022-08-19T05:35:13;11.52;;;8.15;;
54360;SDS011;40258;53.936;27.540;2022-08-19T05:37:42;14.13;;;8.73;;
54360;SDS011;40258;53.936;27.540;2022-08-19T05:40:11;12.35;;;8.57;;
54360;SDS011;40258;53.936;27.540;2022-08-19T05:42:40;12.35;;;8.50;;
54360;SDS011;40258;53.936;27.540;2022-08-19T05:45:09;12.95;;;9.00;;
54360;SDS011;40258;53.936;27.540;2022-08-19T05:47:38;13.82;;;8.45;;
54360;SDS011;40258;53.936;27.540;2022-08-19T05:50:07;15.90;;;8.88;;
54360;SDS011;40258;53.936;27.540;2022-08-19T05:52:37;13.32;;;8.25;;
54360;SDS011;40258;53.936;27.540;2022-08-19T05:55:06;12.75;;;9.45;;
54360;SDS011;40258;53.936;27.540;2022-08-19T05:57:37;13.80;;;8.70;;
54360;SDS011;40258;53.936;27.540;2022-08-19T06:00:06;12.65;;;9.07;;
54360;SDS011;40258;53.936;27.540;2022-08-19T06:02:38;13.45;;;8.85;;
54360;SDS011;40258;53.936;27.540;2022-08-19T06:05:07;15.32;;;8.95;;
54360;SDS011;40258;53.936;27.540;2022-08-19T06:07:38;11.50;;;8.30;;
54360;SDS011;40258;53.936;27.540;2022-08-19T06:10:08;11.38;;;7.97;;
54360;SDS011;40258;53.936;27.540;2022-08-19T06:12:39;15.35;;;9.50;;
54360;SDS011;40258;53.936;27.540;2022-08-19T06:15:09;15.90;;;8.60;;
54360;SDS011;40258;53.936;27.540;2022-08-19T06:17:41;15.77;;;9.68;;
54360;SDS011;40258;53.936;27.540;2022-08-19T06:20:12;13.93;;;8.85;;
54360;SDS011;40258;53.936;27.540;2022-08-19T06:22:44;15.85;;;8.95;;
54360;SDS011;40258;53.936;27.540;2022-08-19T06:25:15;12.40;;;8.75;;
54360;SDS011;40258;53.936;27.540;2022-08-19T06:27:46;13.32;;;8.88;;
54360;SDS011;40258;53.936;27.540;2022-08-19T06:30:15;16.20;;;9.40;;
54360;SDS011;40258;53.936;27.540;2022-08-19T06:32:43;11.63;;;9.35;;
54360;SDS011;40258;53.936;27.540;2022-08-19T06:35:12;14.10;;;9.45;;
54360;SDS011;40258;53.936;27.540;2022-08-19T06:37:40;13.75;;;8.77;;
54360;SDS011;40258;53.936;27.540;2022-08-19T06:40:10;11.98;;;8.50;;
54360;SDS011;40258;53.936;27.540;2022-08-19T06:42:39;13.38;;;9.57;;
54360;SDS011;40258;53.936;27.540;2022-08-19T06:45:09;12.05;;;9.35;;
54360;SDS011;40258;53.936;27.540;2022-08-19T06:47:38;15.85;;;9.95;;
54360;SDS011;40258;53.936;27.540;2022-08-19T06:50:13;14.32;;;9.63;;
54360;SDS011;40258;53.936;27.540;2022-08-19T06:52:41;13.35;;;9.40;;
54360;SDS011;40258;53.936;27.540;2022-08-19T06:55:10;15.52;;;9.00;;
54360;SDS011;40258;53.936;27.540;2022-08-19T06:57:38;14.32;;;8.60;;
54360;SDS011;40258;53.936;27.540;2022-08-19T07:00:11;15.20;;;8.25;;
54360;SDS011;40258;53.936;27.540;2022-08-19T07:02:40;12.57;;;8.20;;
54360;SDS011;40258;53.936;27.540;2022-08-19T07:05:09;13.77;;;7.97;;
54360;SDS011;40258;53.936;27.540;2022-08-19T07:07:37;12.30;;;8.00;;
54360;SDS011;40258;53.936;27.540;2022-08-19T07:10:09;13.30;;;6.82;;
54360;SDS011;40258;53.936;27.540;2022-08-19T07:12:37;14.02;;;7.63;;
54360;SDS011;40258;53.936;27.540;2022-08-19T07:15:07;14.10;;;7.35;;
54360;SDS011;40258;53.936;27.540;2022-08-19T07:17:39;14.50;;;7.40;;
54360;SDS011;40258;53.936;27.540;2022-08-19T07:20:09;11.10;;;6.50;;
54360;SDS011;40258;53.936;27.540;2022-08-19T07:22:39;12.23;;;6.97;;
54360;SDS011;40258;53.936;27.540;2022-08-19T07:25:09;12.45;;;6.22;;
54360;SDS011;40258;53.936;27.540;2022-08-19T07:27:39;14.63;;;6.50;;
54360;SDS011;40258;53.936;27.540;2022-08-19T07:30:10;10.57;;;5.55;;
54360;SDS011;40258;53.936;27.540;2022-08-19T07:32:39;10.05;;;4.70;;
54360;SDS011;40258;53.936;27.540;2022-08-19T07:35:08;11.13;;;5.13;;
54360;SDS011;40258;53.936;27.540;2022-08-19T07:37:37;8.80;;;5.10;;
54360;SDS011;40258;53.936;27.540;2022-08-19T07:40:11;9.57;;;5.13;;
54360;SDS011;40258;53.936;27.540;2022-08-19T07:42:39;12.35;;;5.18;;
54360;SDS011;40258;53.936;27.540;2022-08-19T07:45:10;9.73;;;5.38;;
54360;SDS011;40258;53.936;27.540;2022-08-19T07:47:41;10.80;;;4.95;;
54360;SDS011;40258;53.936;27.540;2022-08-19T07:50:12;9.02;;;4.65;;
54360;SDS011;40258;53.936;27.540;2022-08-19T07:52:40;10.18;;;4.95;;
54360;SDS011;40258;53.936;27.540;2022-08-19T07:55:10;11.00;;;4.82;;
54360;SDS011;40258;53.936;27.540;2022-08-19T07:57:39;11.38;;;5.40;;
54360;SDS011;40258;53.936;27.540;2022-08-19T08:00:07;8.57;;;4.95;;
54360;SDS011;40258;53.936;27.540;2022-08-19T08:02:39;8.05;;;4.35;;
54360;SDS011;40258;53.936;27.540;2022-08-19T08:05:08;9.68;;;5.20;;
54360;SDS011;40258;53.936;27.540;2022-08-19T08:07:55;9.68;;;4.32;;
54360;SDS011;40258;53.936;27.540;2022-08-19T08:10:41;9.75;;;4.55;;
54360;SDS011;40258;53.936;27.540;2022-08-19T08:13:10;6.70;;;4.07;;
54360;SDS011;40258;53.936;27.540;2022-08-19T08:15:40;6.55;;;4.03;;
54360;SDS011;40258;53.936;27.540;2022-08-19T08:18:10;6.68;;;4.15;;
54360;SDS011;40258;53.936;27.540;2022-08-19T08:20:39;9.27;;;4.60;;
54360;SDS011;40258;53.936;27.540;2022-08-19T08:23:07;9.93;;;4.63;;
54360;SDS011;40258;53.936;27.540;2022-08-19T08:25:52;6.75;;;3.28;;
54360;SDS011;40258;53.936;27.540;2022-08-19T08:28:24;11.68;;;4.20;;
54360;SDS011;40258;53.936;27.540;2022-08-19T08:30:57;7.72;;;4.38;;
54360;SDS011;40258;53.936;27.540;2022-08-19T08:33:26;13.07;;;4.70;;
54360;SDS011;40258;53.936;27.540;2022-08-19T08:35:57;8.52;;;4.70;;
54360;SDS011;40258;53.936;27.540;2022-08-19T08:38:25;10.70;;;4.05;;
54360;SDS011;40258;53.936;27.540;2022-08-19T08:40:56;9.77;;;4.13;;
54360;SDS011;40258;53.936;27.540;2022-08-19T08:43:34;7.22;;;3.60;;
54360;SDS011;40258;53.936;27.540;2022-08-19T08:46:10;8.18;;;3.83;;
54360;SDS011;40258;53.936;27.540;2022-08-19T08:48:54;10.55;;;3.75;;
54360;SDS011;40258;53.936;27.540;2022-08-19T08:51:34;7.45;;;3.97;;
54360;SDS011;40258;53.936;27.540;2022-08-19T08:54:06;7.10;;;3.90;;
54360;SDS011;40258;53.936;27.540;2022-08-19T08:56:39;7.93;;;3.65;;
54360;SDS011;40258;53.936;27.540;2022-08-19T08:59:10;9.32;;;4.20;;
54360;SDS011;40258;53.936;27.540;2022-08-19T09:01:50;9.18;;;3.53;;
54360;SDS011;40258;53.936;27.540;2022-08-19T09:04:19;7.80;;;3.92;;
54360;SDS011;40258;53.936;27.540;2022-08-19T09:06:50;12.35;;;3.58;;
54360;SDS011;40258;53.936;27.540;2022-08-19T09:09:25;7.03;;;3.38;;
54360;SDS011;40258;53.936;27.540;2022-08-19T09:12:03;5.25;;;2.83;;
54360;SDS011;40258;53.936;27.540;2022-08-19T09:14:42;9.27;;;3.70;;
54360;SDS011;40258;53.936;27.540;2022-08-19T09:17:19;8.27;;;3.65;;
54360;SDS011;40258;53.936;27.540;2022-08-19T09:19:57;6.63;;;3.42;;
54360;SDS011;40258;53.936;27.540;2022-08-19T09:22:31;11.30;;;4.03;;
54360;SDS011;40258;53.936;27.540;2022-08-19T09:25:00;6.97;;;3.40;;
54360;SDS011;40258;53.936;27.540;2022-08-19T09:27:30;10.43;;;3.83;;
54360;SDS011;40258;53.936;27.540;2022-08-19T09:29:59;19.92;;;4.80;;
54360;SDS011;40258;53.936;27.540;2022-08-19T09:32:29;6.95;;;3.72;;
54360;SDS011;40258;53.936;27.540;2022-08-19T09:34:58;12.38;;;3.97;;
54360;SDS011;40258;53.936;27.540;2022-08-19T09:37:27;7.90;;;4.50;;
54360;SDS011;40258;53.936;27.540;2022-08-19T09:39:56;6.47;;;4.20;;
54360;SDS011;40258;53.936;27.540;2022-08-19T09:42:25;14.20;;;3.97;;
54360;SDS011;40258;53.936;27.540;2022-08-19T09:44:54;11.00;;;4.50;;
54360;SDS011;40258;53.936;27.540;2022-08-19T09:47:22;8.00;;;4.05;;
54360;SDS011;40258;53.936;27.540;2022-08-19T09:49:52;7.43;;;3.95;;
54360;SDS011;40258;53.936;27.540;2022-08-19T09:52:20;6.45;;;4.07;;
54360;SDS011;40258;53.936;27.540;2022-08-19T09:54:51;11.10;;;4.65;;
54360;SDS011;40258;53.936;27.540;2022-08-19T09:57:20;14.50;;;4.30;;
54360;SDS011;40258;53.936;27.540;2022-08-19T09:59:49;9.95;;;4.97;;
54360;SDS011;40258;53.936;27.540;2022-08-19T10:02:19;7.90;;;4.45;;
54360;SDS011;40258;53.936;27.540;2022-08-19T10:04:48;9.80;;;4.60;;
54360;SDS011;40258;53.936;27.540;2022-08-19T10:07:35;10.27;;;4.30;;
54360;SDS011;40258;53.936;27.540;2022-08-19T10:10:05;7.28;;;4.18;;
54360;SDS011;40258;53.936;27.540;2022-08-19T10:12:35;7.75;;;4.35;;
54360;SDS011;40258;53.936;27.540;2022-08-19T10:15:04;6.28;;;3.60;;
54360;SDS011;40258;53.936;27.540;2022-08-19T10:17:34;10.95;;;4.30;;
54360;SDS011;40258;53.936;27.540;2022-08-19T10:20:03;7.00;;;4.38;;
54360;SDS011;40258;53.936;27.540;2022-08-19T10:22:33;11.13;;;4.22;;
54360;SDS011;40258;53.936;27.540;2022-08-19T10:25:06;9.30;;;4.65;;
54360;SDS011;40258;53.936;27.540;2022-08-19T10:27:35;12.95;;;4.28;;
54360;SDS011;40258;53.936;27.540;2022-08-19T10:30:04;9.23;;;4.43;;
54360;SDS011;40258;53.936;27.540;2022-08-19T10:32:35;14.38;;;4.55;;
54360;SDS011;40258;53.936;27.540;2022-08-19T10:35:04;12.80;;;4.72;;
54360;SDS011;40258;53.936;27.540;2022-08-19T10:37:34;9.15;;;4.60;;
54360;SDS011;40258;53.936;27.540;2022-08-19T10:40:06;8.13;;;4.95;;
54360;SDS011;40258;53.936;27.540;2022-08-19T10:42:37;9.82;;;4.78;;
54360;SDS011;40258;53.936;27.540;2022-08-19T10:45:06;12.02;;;4.50;;
54360;SDS011;40258;53.936;27.540;2022-08-19T10:47:35;11.40;;;4.82;;
54360;SDS011;40258;53.936;27.540;2022-08-19T10:50:04;12.68;;;5.40;;
54360;SDS011;40258;53.936;27.540;2022-08-19T10:52:52;8.98;;;5.10;;
54360;SDS011;40258;53.936;27.540;2022-08-19T10:55:23;12.60;;;5.50;;
54360;SDS011;40258;53.936;27.540;2022-08-19T10:58:09;11.75;;;5.00;;
54360;SDS011;40258;53.936;27.540;2022-08-19T11:00:39;8.93;;;4.43;;
54360;SDS011;40258;53.936;27.540;2022-08-19T11:03:09;13.85;;;5.05;;
54360;SDS011;40258;53.936;27.540;2022-08-19T11:05:38;12.07;;;5.13;;
54360;SDS011;40258;53.936;27.540;2022-08-19T11:08:07;8.05;;;4.75;;
54360;SDS011;40258;53.936;27.540;2022-08-19T11:10:42;9.68;;;4.82;;
54360;SDS011;40258;53.936;27.540;2022-08-19T11:13:10;9.38;;;4.30;;
54360;SDS011;40258;53.936;27.540;2022-08-19T11:15:39;11.10;;;5.32;;
54360;SDS011;40258;53.936;27.540;2022-08-19T11:18:08;9.93;;;5.22;;
54360;SDS011;40258;53.936;27.540;2022-08-19T11:20:36;9.10;;;5.20;;
54360;SDS011;40258;53.936;27.540;2022-08-19T11:23:05;9.98;;;5.50;;
54360;SDS011;40258;53.936;27.540;2022-08-19T11:25:33;12.45;;;5.40;;
54360;SDS011;40258;53.936;27.540;2022-08-19T11:28:06;11.30;;;5.57;;
54360;SDS011;40258;53.936;27.540;2022-08-19T11:30:36;8.35;;;4.97;;
54360;SDS011;40258;53.936;27.540;2022-08-19T11:33:05;14.48;;;5.20;;
54360;SDS011;40258;53.936;27.540;2022-08-19T11:35:37;9.77;;;4.55;;
54360;SDS011;40258;53.936;27.540;2022-08-19T11:38:07;10.60;;;4.47;;
54360;SDS011;40258;53.936;27.540;2022-08-19T11:40:35;9.18;;;4.40;;
54360;SDS011;40258;53.936;27.540;2022-08-19T11:43:04;10.88;;;4.85;;
54360;SDS011;40258;53.936;27.540;2022-08-19T11:45:35;9.82;;;4.95;;
54360;SDS011;40258;53.936;27.540;2022-08-19T11:48:04;9.75;;;4.63;;
54360;SDS011;40258;53.936;27.540;2022-08-19T11:50:32;9.05;;;5.03;;
54360;SDS011;40258;53.936;27.540;2022-08-19T11:53:01;10.40;;;4.45;;
54360;SDS011;40258;53.936;27.540;2022-08-19T11:55:30;8.07;;;4.53;;
54360;SDS011;40258;53.936;27.540;2022-08-19T11:57:58;7.53;;;4.43;;
54360;SDS011;40258;53.936;27.540;2022-08-19T12:00:29;11.77;;;4.60;;
54360;SDS011;40258;53.936;27.540;2022-08-19T12:02:57;10.75;;;4.38;;
54360;SDS011;40258;53.936;27.540;2022-08-19T12:05:26;10.10;;;4.57;;
54360;SDS011;40258;53.936;27.540;2022-08-19T12:07:55;9.43;;;4.47;;
54360;SDS011;40258;53.936;27.540;2022-08-19T12:10:23;13.07;;;5.03;;
54360;SDS011;40258;53.936;27.540;2022-08-19T12:12:52;9.18;;;4.80;;
54360;SDS011;40258;53.936;27.540;2022-08-19T12:15:21;11.05;;;4.82;;
54360;SDS011;40258;53.936;27.540;2022-08-19T12:17:51;10.35;;;5.68;;
54360;SDS011;40258;53.936;27.540;2022-08-19T12:20:23;8.93;;;4.60;;
54360;SDS011;40258;53.936;27.540;2022-08-19T12:22:52;9.05;;;4.95;;
54360;SDS011;40258;53.936;27.540;2022-08-19T12:25:20;8.65;;;4.47;;
54360;SDS011;40258;53.936;27.540;2022-08-19T12:27:49;9.73;;;4.57;;
54360;SDS011;40258;53.936;27.540;2022-08-19T12:30:17;16.23;;;5.68;;
54360;SDS011;40258;53.936;27.540;2022-08-19T12:32:46;7.88;;;4.90;;
54360;SDS011;40258;53.936;27.540;2022-08-19T12:35:16;12.45;;;5.53;;
54360;SDS011;40258;53.936;27.540;2022-08-19T12:37:46;10.35;;;5.25;;
54360;SDS011;40258;53.936;27.540;2022-08-19T12:40:15;11.55;;;5.18;;
54360;SDS011;40258;53.936;27.540;2022-08-19T12:42:45;12.40;;;6.03;;
54360;SDS011;40258;53.936;27.540;2022-08-19T12:45:17;15.32;;;5.55;;
54360;SDS011;40258;53.936;27.540;2022-08-19T12:47:46;10.48;;;5.28;;
54360;SDS011;40258;53.936;27.540;2022-08-19T12:50:16;9.70;;;5.63;;
54360;SDS011;40258;53.936;27.540;2022-08-19T12:52:47;14.68;;;6.18;;
54360;SDS011;40258;53.936;27.540;2022-08-19T12:55:16;12.75;;;6.63;;
54360;SDS011;40258;53.936;27.540;2022-08-19T12:57:45;12.20;;;5.82;;
54360;SDS011;40258;53.936;27.540;2022-08-19T13:00:15;10.38;;;4.82;;
54360;SDS011;40258;53.936;27.540;2022-08-19T13:02:47;12.10;;;6.10;;
54360;SDS011;40258;53.936;27.540;2022-08-19T13:05:20;10.30;;;5.63;;
54360;SDS011;40258;53.936;27.540;2022-08-19T13:07:53;13.35;;;6.30;;
54360;SDS011;40258;53.936;27.540;2022-08-19T13:10:23;11.23;;;5.68;;
54360;SDS011;40258;53.936;27.540;2022-08-19T13:12:55;12.82;;;5.75;;
54360;SDS011;40258;53.936;27.540;2022-08-19T13:15:25;11.07;;;5.18;;
54360;SDS011;40258;53.936;27.540;2022-08-19T13:17:54;10.13;;;5.63;;
54360;SDS011;40258;53.936;27.540;2022-08-19T13:20:25;10.55;;;4.90;;
54360;SDS011;40258;53.936;27.540;2022-08-19T13:22:54;13.88;;;5.80;;
54360;SDS011;40258;53.936;27.540;2022-08-19T13:25:23;12.05;;;5.40;;
54360;SDS011;40258;53.936;27.540;2022-08-19T13:27:52;10.45;;;5.35;;
54360;SDS011;40258;53.936;27.540;2022-08-19T13:30:21;10.57;;;5.90;;
54360;SDS011;40258;53.936;27.540;2022-08-19T13:33:07;13.00;;;5.65;;
54360;SDS011;40258;53.936;27.540;2022-08-19T13:35:42;16.80;;;6.57;;
54360;SDS011;40258;53.936;27.540;2022-08-19T13:38:15;9.80;;;5.88;;
54360;SDS011;40258;53.936;27.540;2022-08-19T13:40:48;12.77;;;5.80;;
54360;SDS011;40258;53.936;27.540;2022-08-19T13:43:20;11.23;;;5.45;;
54360;SDS011;40258;53.936;27.540;2022-08-19T13:45:53;14.43;;;5.60;;
54360;SDS011;40258;53.936;27.540;2022-08-19T13:48:23;11.38;;;5.25;;
54360;SDS011;40258;53.936;27.540;2022-08-19T13:50:54;7.82;;;4.55;;
54360;SDS011;40258;53.936;27.540;2022-08-19T13:53:23;9.80;;;5.78;;
54360;SDS011;40258;53.936;27.540;2022-08-19T13:55:51;13.32;;;4.90;;
54360;SDS011;40258;53.936;27.540;2022-08-19T13:58:20;10.70;;;6.13;;
54360;SDS011;40258;53.936;27.540;2022-08-19T14:00:49;7.78;;;5.18;;
54360;SDS011;40258;53.936;27.540;2022-08-19T14:03:18;9.35;;;5.45;;
54360;SDS011;40258;53.936;27.540;2022-08-19T14:05:46;10.40;;;4.72;;
54360;SDS011;40258;53.936;27.540;2022-08-19T14:08:16;7.88;;;4.85;;
54360;SDS011;40258;53.936;27.540;2022-08-19T14:10:45;7.90;;;4.85;;
54360;SDS011;40258;53.936;27.540;2022-08-19T14:13:15;9.18;;;5.50;;
54360;SDS011;40258;53.936;27.540;2022-08-19T14:15:46;8.50;;;5.50;;
54360;SDS011;40258;53.936;27.540;2022-08-19T14:18:15;7.97;;;5.40;;
54360;SDS011;40258;53.936;27.540;2022-08-19T14:20:45;12.77;;;5.55;;
54360;SDS011;40258;53.936;27.540;2022-08-19T14:23:15;9.77;;;5.13;;
54360;SDS011;40258;53.936;27.540;2022-08-19T14:25:46;11.10;;;5.18;;
54360;SDS011;40258;53.936;27.540;2022-08-19T14:28:14;8.73;;;5.10;;
54360;SDS011;40258;53.936;27.540;2022-08-19T14:30:42;11.25;;;5.55;;
54360;SDS011;40258;53.936;27.540;2022-08-19T14:33:11;10.40;;;5.15;;
54360;SDS011;40258;53.936;27.540;2022-08-19T14:35:40;8.20;;;4.65;;
54360;SDS011;40258;53.936;27.540;2022-08-19T14:38:14;7.65;;;4.75;;
54360;SDS011;40258;53.936;27.540;2022-08-19T14:40:45;8.97;;;4.87;;
54360;SDS011;40258;53.936;27.540;2022-08-19T14:43:14;11.20;;;5.20;;
54360;SDS011;40258;53.936;27.540;2022-08-19T14:45:44;7.18;;;4.72;;